createdAt,value
2019-05-05T00:02:28.243Z,2.80
2019-05-05T00:05:01.297Z,2.60
2019-05-05T00:07:28.743Z,2.77
2019-05-05T00:09:56.181Z,2.70
2019-05-05T00:12:27.576Z,3.00
2019-05-05T00:14:56.985Z,2.70
2019-05-05T00:17:24.959Z,2.73
2019-05-05T00:19:54.834Z,2.90
2019-05-05T00:22:20.154Z,2.43
2019-05-05T00:24:47.616Z,2.90
2019-05-05T00:27:15.116Z,2.50
2019-05-05T00:29:42.501Z,2.50
2019-05-05T00:32:09.948Z,2.67
2019-05-05T00:34:37.366Z,2.40
2019-05-05T00:37:04.869Z,2.70
2019-05-05T00:39:34.335Z,2.78
2019-05-05T00:41:59.727Z,2.60
2019-05-05T00:44:27.722Z,2.97
2019-05-05T00:47:05.353Z,2.40
2019-05-05T00:49:44.859Z,2.70
2019-05-05T00:52:00.115Z,2.28
2019-05-05T00:54:27.535Z,2.80
2019-05-05T00:56:54.973Z,3.00
2019-05-05T00:59:25.308Z,2.50
2019-05-05T01:01:57.469Z,3.10
2019-05-05T01:04:27.238Z,2.67
2019-05-05T01:06:54.708Z,2.40
2019-05-05T01:09:22.284Z,2.70
2019-05-05T01:14:22.465Z,2.67
2019-05-05T01:16:49.895Z,2.20
2019-05-05T01:19:17.344Z,2.50
2019-05-05T01:21:45.413Z,2.50
2019-05-05T01:24:14.279Z,2.77
2019-05-05T01:26:39.702Z,2.53
2019-05-05T01:29:07.155Z,2.90
2019-05-05T01:31:34.786Z,2.73
2019-05-05T01:34:15.188Z,2.73
2019-05-05T01:36:42.340Z,3.30
2019-05-05T01:39:09.793Z,2.72
2019-05-05T01:41:38.623Z,2.60
2019-05-05T01:44:06.082Z,3.12
2019-05-05T01:46:35.328Z,3.50
2019-05-05T01:49:01.049Z,2.58
2019-05-05T01:51:28.605Z,3.10
2019-05-05T01:53:56.051Z,2.90
2019-05-05T01:56:26.399Z,2.77
2019-05-05T01:58:54.772Z,2.90
2019-05-05T02:01:21.309Z,2.87
2019-05-05T02:03:48.728Z,2.70
2019-05-05T02:06:16.214Z,3.17
2019-05-05T02:08:45.468Z,3.10
2019-05-05T02:11:11.520Z,3.00
2019-05-05T02:13:38.931Z,3.15
2019-05-05T02:16:06.367Z,2.78
2019-05-05T02:18:34.612Z,3.23
2019-05-05T02:21:02.086Z,3.10
2019-05-05T02:23:29.807Z,3.40
2019-05-05T02:25:57.244Z,3.03
2019-05-05T02:28:25.612Z,3.30
2019-05-05T02:30:55.001Z,2.90
2019-05-05T02:33:21.474Z,3.17
2019-05-05T02:35:48.925Z,3.20
2019-05-05T02:38:16.606Z,2.90
2019-05-05T02:40:45.267Z,3.00
2019-05-05T02:43:14.689Z,2.90
2019-05-05T02:45:44.039Z,3.10
2019-05-05T02:48:09.129Z,3.10
2019-05-05T02:50:52.419Z,2.78
2019-05-05T02:53:09.583Z,2.80
2019-05-05T02:55:37.086Z,3.10
2019-05-05T02:58:04.511Z,2.80
2019-05-05T03:00:48.407Z,2.70
2019-05-05T03:03:15.854Z,2.27
2019-05-05T03:05:43.534Z,3.00
2019-05-05T03:08:10.922Z,2.60
2019-05-05T03:10:38.362Z,2.80
2019-05-05T03:13:05.806Z,3.70
2019-05-05T03:15:39.108Z,2.78
2019-05-05T03:18:06.533Z,3.20
2019-05-05T03:20:34.406Z,3.30
2019-05-05T03:23:01.466Z,3.42
2019-05-05T03:25:28.879Z,3.17
2019-05-05T03:27:57.143Z,3.78
2019-05-05T03:30:26.102Z,3.80
2019-05-05T03:32:55.664Z,3.78
2019-05-05T03:35:19.552Z,4.00
2019-05-05T03:37:46.975Z,3.80
2019-05-05T03:40:14.876Z,3.33
2019-05-05T03:42:41.876Z,3.85
2019-05-05T03:45:11.872Z,3.30
2019-05-05T03:47:40.283Z,3.90
2019-05-05T03:50:07.839Z,4.00
2019-05-05T03:52:35.305Z,3.43
2019-05-05T03:55:03.836Z,3.33
2019-05-05T03:57:30.184Z,3.37
2019-05-05T03:59:57.638Z,3.53
2019-05-05T04:02:36.839Z,3.45
2019-05-05T04:05:19.962Z,3.63
2019-05-05T04:07:47.425Z,4.13
2019-05-05T04:10:14.898Z,4.07
2019-05-05T04:12:43.524Z,3.77
2019-05-05T04:15:09.797Z,4.00
2019-05-05T04:17:44.285Z,4.13
2019-05-05T04:20:15.925Z,4.20
2019-05-05T04:22:43.589Z,4.30
2019-05-05T04:25:10.811Z,4.30
2019-05-05T04:27:38.269Z,3.93
2019-05-05T04:30:05.683Z,4.80
2019-05-05T04:32:34.824Z,4.62
2019-05-05T04:35:00.611Z,5.00
2019-05-05T04:37:28.437Z,4.85
2019-05-05T04:39:55.870Z,3.87
2019-05-05T04:42:24.485Z,4.83
2019-05-05T04:44:50.786Z,4.73
2019-05-05T04:47:34.272Z,4.63
2019-05-05T04:50:01.322Z,4.83
2019-05-05T04:52:29.532Z,3.97
2019-05-05T04:54:56.976Z,4.23
2019-05-05T04:57:24.432Z,5.03
2019-05-05T04:59:53.881Z,4.30
2019-05-05T05:02:39.581Z,4.70
2019-05-05T05:05:09.508Z,4.60
2019-05-05T05:07:37.367Z,4.33
2019-05-05T05:10:06.827Z,4.60
2019-05-05T05:12:34.356Z,4.53
2019-05-05T05:15:04.114Z,4.37
2019-05-05T05:17:33.728Z,4.63
2019-05-05T05:19:59.160Z,4.40
2019-05-05T05:22:26.571Z,4.70
2019-05-05T05:24:54.236Z,4.07
2019-05-05T05:27:21.448Z,5.00
2019-05-05T05:29:48.889Z,4.70
2019-05-05T05:32:17.238Z,4.60
2019-05-05T05:34:44.744Z,4.97
2019-05-05T05:37:13.498Z,4.87
2019-05-05T05:39:44.038Z,4.47
2019-05-05T05:42:09.948Z,4.82
2019-05-05T05:44:44.538Z,4.55
2019-05-05T05:47:26.771Z,4.30
2019-05-05T05:49:56.996Z,4.50
2019-05-05T05:52:24.439Z,4.62
2019-05-05T05:54:53.515Z,4.00
2019-05-05T05:57:19.374Z,4.77
2019-05-05T05:59:46.789Z,3.70
2019-05-05T06:02:15.663Z,4.50
2019-05-05T06:04:41.695Z,4.40
2019-05-05T06:07:09.178Z,4.67
2019-05-05T06:09:36.617Z,3.90
2019-05-05T06:12:04.057Z,4.63
2019-05-05T06:14:31.488Z,4.75
2019-05-05T06:16:58.943Z,4.47
2019-05-05T06:19:26.381Z,4.33
2019-05-05T06:21:54.323Z,4.53
2019-05-05T06:24:21.299Z,4.20
2019-05-05T06:26:48.758Z,4.40
2019-05-05T06:29:16.197Z,5.20
2019-05-05T06:31:44.780Z,4.75
2019-05-05T06:34:11.142Z,4.28
2019-05-05T06:36:38.543Z,5.05
2019-05-05T06:39:05.997Z,4.37
2019-05-05T06:41:34.178Z,4.67
2019-05-05T06:44:03.683Z,4.53
2019-05-05T06:46:46.229Z,4.55
2019-05-05T06:49:13.782Z,4.50
2019-05-05T06:51:41.156Z,5.43
2019-05-05T06:54:09.784Z,5.37
2019-05-05T06:56:37.275Z,4.80
2019-05-05T06:59:04.748Z,4.93
2019-05-05T07:01:33.772Z,5.20
2019-05-05T07:03:59.661Z,5.00
2019-05-05T07:06:27.123Z,4.72
2019-05-05T07:08:54.732Z,5.17
2019-05-05T07:11:23.798Z,5.37
2019-05-05T07:13:49.531Z,5.10
2019-05-05T07:16:17.579Z,5.60
2019-05-05T07:18:45.034Z,5.47
2019-05-05T07:21:14.281Z,5.37
2019-05-05T07:23:40.113Z,6.60
2019-05-05T07:26:07.570Z,6.00
2019-05-05T07:28:35.122Z,6.60
2019-05-05T07:31:04.446Z,5.27
2019-05-05T07:33:30.012Z,6.27
2019-05-05T07:36:14.598Z,5.83
2019-05-05T07:38:40.557Z,6.57
2019-05-05T07:41:08.710Z,5.93
2019-05-05T07:43:36.295Z,5.80
2019-05-05T07:46:04.433Z,6.43
2019-05-05T07:48:33.601Z,6.14
2019-05-05T07:51:02.835Z,6.03
2019-05-05T07:53:27.118Z,6.33
2019-05-05T07:55:54.569Z,6.77
2019-05-05T07:58:24.124Z,6.97
2019-05-05T08:00:49.916Z,7.18
2019-05-05T08:03:17.380Z,6.20
2019-05-05T08:05:44.917Z,5.12
2019-05-05T08:08:13.982Z,6.87
2019-05-05T08:10:39.815Z,6.32
2019-05-05T08:13:07.251Z,6.78
2019-05-05T08:15:34.767Z,4.97
2019-05-05T08:18:04.582Z,6.70
2019-05-05T08:20:31.011Z,6.80
2019-05-05T08:22:58.491Z,6.72
2019-05-05T08:25:36.858Z,6.57
2019-05-05T08:27:53.931Z,5.83
2019-05-05T08:30:25.987Z,5.87
2019-05-05T08:32:54.538Z,5.33
2019-05-05T08:35:20.914Z,5.20
2019-05-05T08:37:48.361Z,5.87
2019-05-05T08:40:15.857Z,5.25
2019-05-05T08:42:44.561Z,5.60
2019-05-05T08:45:10.891Z,5.45
2019-05-05T08:47:38.359Z,4.30
2019-05-05T08:50:05.779Z,5.40
2019-05-05T08:52:34.253Z,6.62
2019-05-05T08:55:00.691Z,5.47
2019-05-05T08:57:28.120Z,5.07
2019-05-05T08:59:55.567Z,5.60
2019-05-05T09:02:23.952Z,5.60
2019-05-05T09:04:50.478Z,5.30
2019-05-05T09:07:17.958Z,4.40
2019-05-05T09:09:45.413Z,4.03
2019-05-05T09:12:13.895Z,4.30
2019-05-05T09:14:41.017Z,4.35
2019-05-05T09:17:08.495Z,4.90
2019-05-05T09:19:35.937Z,4.10
2019-05-05T09:22:06.784Z,4.60
2019-05-05T09:24:33.967Z,3.93
2019-05-05T09:27:03.667Z,4.37
2019-05-05T09:29:44.036Z,4.13
2019-05-05T09:32:11.099Z,4.20
2019-05-05T09:34:38.644Z,3.72
2019-05-05T09:37:06.095Z,3.90
2019-05-05T09:39:34.521Z,4.30
2019-05-05T09:42:01.099Z,4.10
2019-05-05T09:44:28.544Z,4.93
2019-05-05T09:46:56.017Z,4.05
2019-05-05T09:49:24.593Z,4.77
2019-05-05T09:51:50.938Z,3.90
2019-05-05T09:54:18.367Z,4.43
2019-05-05T09:56:49.155Z,4.35
2019-05-05T10:01:56.884Z,4.30
2019-05-05T10:04:24.433Z,4.18
2019-05-05T10:06:51.845Z,4.65
2019-05-05T10:09:19.283Z,4.93
2019-05-05T10:11:46.737Z,5.03
2019-05-05T10:14:14.422Z,4.30
2019-05-05T10:16:42.666Z,4.27
2019-05-05T10:19:10.105Z,3.60
2019-05-05T10:21:37.555Z,3.43
2019-05-05T10:24:09.338Z,3.40
2019-05-05T10:26:36.952Z,4.00
2019-05-05T10:29:04.385Z,3.53
2019-05-05T10:31:31.871Z,3.70
2019-05-05T10:33:59.398Z,3.57
2019-05-05T10:36:26.836Z,3.90
2019-05-05T10:38:54.648Z,3.80
2019-05-05T10:41:23.459Z,3.53
2019-05-05T10:43:49.527Z,4.03
2019-05-05T10:46:16.979Z,3.70
2019-05-05T10:48:44.663Z,3.83
2019-05-05T10:51:12.068Z,3.77
2019-05-05T10:53:39.494Z,3.07
2019-05-05T10:56:06.931Z,3.37
2019-05-05T10:58:34.357Z,4.23
2019-05-05T11:01:03.983Z,3.40
2019-05-05T11:03:29.245Z,3.40
2019-05-05T11:05:56.710Z,4.03
2019-05-05T11:08:24.201Z,3.95
2019-05-05T11:10:51.680Z,3.65
2019-05-05T11:13:19.137Z,2.37
2019-05-05T11:15:46.571Z,3.70
2019-05-05T11:18:14.757Z,3.73
2019-05-05T11:20:41.479Z,4.37
2019-05-05T11:23:08.933Z,4.47
2019-05-05T11:25:36.375Z,3.33
2019-05-05T11:28:04.627Z,3.70
2019-05-05T11:30:34.059Z,4.63
2019-05-05T11:33:07.156Z,4.30
2019-05-05T11:35:40.346Z,3.90
2019-05-05T11:38:07.782Z,2.77
2019-05-05T11:40:35.187Z,2.10
2019-05-05T11:43:03.824Z,2.00
2019-05-05T11:45:30.093Z,2.20
2019-05-05T11:47:57.541Z,2.30
2019-05-05T11:50:24.991Z,2.80
2019-05-05T11:52:54.342Z,2.45
2019-05-05T11:55:19.947Z,2.40
2019-05-05T11:57:47.410Z,2.70
2019-05-05T12:00:14.939Z,2.80
2019-05-05T12:02:44.240Z,3.00
2019-05-05T12:05:13.992Z,2.70
2019-05-05T12:07:39.149Z,2.67
2019-05-05T12:10:06.652Z,2.92
2019-05-05T12:12:34.076Z,2.65
2019-05-05T12:15:04.344Z,3.50
2019-05-05T12:17:33.965Z,2.63
2019-05-05T12:20:01.543Z,3.40
2019-05-05T12:22:28.979Z,3.47
2019-05-05T12:24:56.446Z,4.30
2019-05-05T12:27:26.287Z,4.07
2019-05-05T12:29:54.577Z,3.53
2019-05-05T12:32:21.171Z,3.15
2019-05-05T12:34:48.610Z,2.78
2019-05-05T12:37:16.073Z,2.95
2019-05-05T12:39:44.251Z,3.23
2019-05-05T12:42:13.930Z,3.30
2019-05-05T12:44:39.236Z,3.20
2019-05-05T12:47:08.560Z,2.72
2019-05-05T12:49:35.999Z,3.37
2019-05-05T12:52:04.581Z,3.07
2019-05-05T12:54:30.882Z,3.10
2019-05-05T12:56:58.321Z,3.13
2019-05-05T12:59:25.965Z,2.97
2019-05-05T13:01:54.697Z,3.40
2019-05-05T13:04:20.853Z,3.70
2019-05-05T13:06:48.316Z,3.30
2019-05-05T13:09:15.808Z,3.83
2019-05-05T13:11:43.730Z,3.53
2019-05-05T13:14:10.729Z,3.47
2019-05-05T13:16:38.196Z,4.27
2019-05-05T13:19:05.701Z,4.23
2019-05-05T13:21:39.585Z,4.10
2019-05-05T13:24:13.706Z,4.27
2019-05-05T13:26:41.596Z,4.17
2019-05-05T13:29:09.079Z,3.77
2019-05-05T13:31:36.534Z,3.60
2019-05-05T13:34:04.430Z,4.30
2019-05-05T13:36:33.435Z,4.20
2019-05-05T13:38:59.047Z,5.40
2019-05-05T13:41:26.598Z,4.73
2019-05-05T13:43:54.081Z,4.87
2019-05-05T13:46:24.691Z,4.65
2019-05-05T13:48:51.029Z,4.43
2019-05-05T13:51:18.461Z,4.60
2019-05-05T13:53:45.900Z,4.60
2019-05-05T13:56:15.399Z,3.70
2019-05-05T13:58:40.831Z,4.57
2019-05-05T14:01:10.054Z,4.20
2019-05-05T14:03:36.080Z,4.50
2019-05-05T14:06:04.750Z,4.30
2019-05-05T14:08:35.596Z,4.37
2019-05-05T14:10:58.979Z,4.70
2019-05-05T14:13:26.426Z,5.30
2019-05-05T14:15:54.489Z,4.40
2019-05-05T14:18:23.086Z,4.30
2019-05-05T14:20:48.982Z,4.47
2019-05-05T14:23:16.281Z,5.50
2019-05-05T14:25:44.066Z,6.03
2019-05-05T14:28:14.022Z,5.30
2019-05-05T14:30:50.302Z,4.63
2019-05-05T14:33:18.475Z,4.65
2019-05-05T14:36:04.662Z,4.20
2019-05-05T14:38:35.586Z,3.75
2019-05-05T14:41:04.147Z,3.70
2019-05-05T14:43:30.588Z,3.87
2019-05-05T14:45:58.028Z,4.33
2019-05-05T14:48:25.746Z,4.40
2019-05-05T14:50:54.350Z,4.50
2019-05-05T14:53:20.649Z,4.47
2019-05-05T14:55:48.303Z,4.40
2019-05-05T14:58:15.745Z,3.63
2019-05-05T15:00:44.270Z,3.60
2019-05-05T15:03:10.700Z,4.97
2019-05-05T15:05:54.980Z,3.85
2019-05-05T15:08:26.250Z,4.20
2019-05-05T15:11:10.346Z,4.53
2019-05-05T15:13:37.767Z,3.77
2019-05-05T15:16:05.322Z,4.63
2019-05-05T15:18:34.573Z,5.10
2019-05-05T15:21:00.332Z,3.77
2019-05-05T15:23:27.774Z,4.15
2019-05-05T15:25:55.238Z,3.25
2019-05-05T15:28:24.570Z,4.03
2019-05-05T15:30:50.242Z,4.13
2019-05-05T15:33:17.670Z,6.27
2019-05-05T15:35:46.590Z,6.90
2019-05-05T15:38:13.798Z,4.33
2019-05-05T15:40:40.061Z,3.87
2019-05-05T15:43:08.515Z,4.03
2019-05-05T15:45:36.024Z,3.47
2019-05-05T15:48:04.600Z,4.33
2019-05-05T15:50:31.035Z,3.53
2019-05-05T15:52:58.489Z,3.87
2019-05-05T15:55:25.931Z,4.23
2019-05-05T15:57:53.412Z,3.93
2019-05-05T16:00:20.858Z,5.40
2019-05-05T16:02:48.291Z,3.53
2019-05-05T16:05:15.750Z,4.13
2019-05-05T16:07:43.975Z,3.58
2019-05-05T16:10:10.661Z,3.80
2019-05-05T16:12:39.681Z,2.77
2019-05-05T16:15:10.324Z,3.67
2019-05-05T16:17:41.297Z,3.57
2019-05-05T16:20:24.429Z,3.50
2019-05-05T16:23:06.718Z,4.50
2019-05-05T16:25:34.171Z,3.73
2019-05-05T16:28:01.628Z,3.77
2019-05-05T16:30:29.080Z,3.53
2019-05-05T16:32:56.573Z,4.27
2019-05-05T16:35:23.997Z,3.40
2019-05-05T16:37:51.494Z,3.43
2019-05-05T16:40:19.793Z,3.14
2019-05-05T16:42:47.261Z,3.62
2019-05-05T16:45:16.472Z,3.30
2019-05-05T16:47:44.270Z,2.90
2019-05-05T16:50:10.218Z,3.10
2019-05-05T16:52:41.096Z,3.53
2019-05-05T16:55:09.010Z,3.37
2019-05-05T16:57:36.819Z,3.57
2019-05-05T17:00:03.932Z,3.97
2019-05-05T17:02:33.256Z,4.60
2019-05-05T17:04:58.873Z,5.33
2019-05-05T17:07:26.331Z,3.87
2019-05-05T17:09:53.830Z,4.60
2019-05-05T17:12:21.267Z,5.60
2019-05-05T17:14:54.307Z,4.10
2019-05-05T17:17:23.275Z,4.57
2019-05-05T17:19:50.131Z,4.00
2019-05-05T17:22:18.104Z,3.50
2019-05-05T17:24:45.561Z,3.33
2019-05-05T17:27:13.957Z,3.95
2019-05-05T17:29:41.016Z,3.60
2019-05-05T17:32:08.505Z,3.53
2019-05-05T17:34:35.957Z,3.30
2019-05-05T17:37:04.299Z,2.70
2019-05-05T17:39:30.940Z,3.10
2019-05-05T17:41:59.201Z,2.85
2019-05-05T17:44:26.658Z,3.10
2019-05-05T17:46:55.627Z,3.03
2019-05-05T17:49:28.572Z,3.13
2019-05-05T17:51:57.937Z,2.97
2019-05-05T17:54:40.529Z,3.07
2019-05-05T17:57:08.010Z,3.33
2019-05-05T17:59:35.463Z,3.50
2019-05-05T18:02:04.766Z,3.30
2019-05-05T18:04:30.392Z,3.03
2019-05-05T18:07:04.100Z,3.30
2019-05-05T18:09:35.329Z,3.53
2019-05-05T18:12:17.659Z,3.13
2019-05-05T18:14:45.092Z,3.87
2019-05-05T18:17:13.681Z,3.87
2019-05-05T18:19:40.534Z,3.70
2019-05-05T18:22:08.835Z,3.53
2019-05-05T18:24:36.479Z,3.72
2019-05-05T18:27:04.554Z,3.63
2019-05-05T18:29:31.435Z,4.18
2019-05-05T18:31:58.906Z,3.90
2019-05-05T18:34:26.550Z,3.97
2019-05-05T18:36:54.560Z,4.12
2019-05-05T18:39:21.556Z,4.30
2019-05-05T18:41:49.907Z,3.80
2019-05-05T18:44:17.446Z,3.77
2019-05-05T18:46:45.040Z,3.50
2019-05-05T18:49:13.866Z,3.97
2019-05-05T18:51:39.941Z,3.97
2019-05-05T18:54:07.361Z,4.33
2019-05-05T18:56:34.870Z,3.57
2019-05-05T18:59:04.623Z,3.93
2019-05-05T19:01:33.761Z,3.70
2019-05-05T19:04:16.374Z,3.50
2019-05-05T19:06:54.665Z,2.90
2019-05-05T19:09:21.964Z,3.27
2019-05-05T19:11:49.392Z,3.62
2019-05-05T19:14:17.449Z,3.47
2019-05-05T19:16:45.436Z,2.97
2019-05-05T19:19:14.310Z,2.90
2019-05-05T19:24:14.691Z,3.07
2019-05-05T19:26:42.150Z,2.90
2019-05-05T19:29:09.575Z,3.10
2019-05-05T19:31:37.003Z,2.90
2019-05-05T19:34:04.482Z,2.77
2019-05-05T19:36:34.134Z,2.90
2019-05-05T19:38:59.361Z,2.83
2019-05-05T19:41:27.429Z,3.23
2019-05-05T19:43:55.259Z,3.07
2019-05-05T19:46:23.490Z,3.15
2019-05-05T19:48:49.884Z,3.33
2019-05-05T19:51:17.456Z,3.23
2019-05-05T19:53:44.956Z,3.07
2019-05-05T19:56:13.546Z,3.53
2019-05-05T19:58:40.007Z,3.20
2019-05-05T20:01:07.486Z,3.40
2019-05-05T20:03:35.507Z,3.17
2019-05-05T20:06:04.633Z,3.35
2019-05-05T20:08:40.399Z,3.67
2019-05-05T20:10:57.604Z,3.75
2019-05-05T20:13:25.208Z,3.43
2019-05-05T20:15:56.469Z,3.30
2019-05-05T20:18:24.893Z,3.37
2019-05-05T20:21:03.157Z,3.33
2019-05-05T20:23:19.167Z,3.40
2019-05-05T20:25:47.167Z,3.37
2019-05-05T20:28:14.651Z,3.67
2019-05-05T20:30:42.107Z,3.43
2019-05-05T20:33:10.042Z,3.53
2019-05-05T20:35:37.573Z,3.43
2019-05-05T20:38:05.930Z,3.60
2019-05-05T20:40:34.952Z,3.58
2019-05-05T20:43:01.185Z,3.72
2019-05-05T20:45:29.117Z,3.30
2019-05-05T20:47:57.618Z,3.33
2019-05-05T20:50:25.253Z,3.20
2019-05-05T20:52:53.547Z,3.20
2019-05-05T20:55:20.443Z,3.53
2019-05-05T20:57:49.179Z,3.33
2019-05-05T21:00:17.628Z,3.10
2019-05-05T21:02:45.105Z,3.50
2019-05-05T21:05:14.476Z,3.03
2019-05-05T21:07:40.194Z,3.10
2019-05-05T21:10:07.658Z,3.33
2019-05-05T21:12:42.375Z,3.60
2019-05-05T21:15:04.668Z,3.25
2019-05-05T21:17:30.098Z,3.47
2019-05-05T21:19:57.568Z,3.47
2019-05-05T21:22:41.589Z,3.83
2019-05-05T21:25:14.621Z,3.27
2019-05-05T21:27:43.592Z,3.67
2019-05-05T21:30:09.562Z,3.60
2019-05-05T21:32:37.022Z,3.40
2019-05-05T21:35:04.459Z,3.30
2019-05-05T21:37:33.903Z,4.18
2019-05-05T21:39:59.467Z,3.40
2019-05-05T21:42:26.944Z,3.70
2019-05-05T21:44:54.439Z,3.42
2019-05-05T21:47:23.853Z,3.57
2019-05-05T21:49:49.364Z,3.33
2019-05-05T21:52:18.637Z,3.47
2019-05-05T21:54:48.539Z,3.13
2019-05-05T21:57:23.375Z,3.40
2019-05-05T21:59:55.622Z,4.10
2019-05-05T22:02:16.643Z,3.40
2019-05-05T22:04:44.140Z,3.40
2019-05-05T22:07:11.594Z,3.80
2019-05-05T22:09:39.041Z,3.90
2019-05-05T22:12:06.482Z,3.77
2019-05-05T22:14:34.204Z,3.77
2019-05-05T22:17:03.986Z,3.63
2019-05-05T22:19:28.995Z,4.07
2019-05-05T22:21:59.358Z,4.10
2019-05-05T22:24:26.793Z,3.60
2019-05-05T22:26:54.379Z,4.05
2019-05-05T22:29:21.853Z,4.40
2019-05-05T22:31:49.594Z,4.27
2019-05-05T22:34:17.063Z,4.20
2019-05-05T22:36:45.034Z,3.60
2019-05-05T22:39:16.485Z,4.00
2019-05-05T22:41:40.820Z,3.80
2019-05-05T22:44:08.520Z,3.67
2019-05-05T22:46:36.023Z,4.10
2019-05-05T22:49:03.994Z,4.37
2019-05-05T22:51:30.933Z,4.02
2019-05-05T22:53:58.409Z,4.37
2019-05-05T22:56:25.882Z,4.10
2019-05-05T22:58:54.707Z,4.20
2019-05-05T23:01:20.776Z,4.73
2019-05-05T23:03:50.050Z,3.90
2019-05-05T23:06:18.293Z,4.30
2019-05-05T23:08:45.704Z,4.47
2019-05-05T23:11:14.527Z,4.20
2019-05-05T23:13:40.644Z,4.10
2019-05-05T23:16:09.508Z,4.22
2019-05-05T23:18:36.957Z,3.60
2019-05-05T23:21:08.189Z,3.93
2019-05-05T23:23:55.960Z,3.17
2019-05-05T23:26:24.635Z,3.70
2019-05-05T23:28:53.684Z,4.17
2019-05-05T23:31:19.572Z,3.97
2019-05-05T23:33:47.046Z,3.90
2019-05-05T23:36:15.215Z,3.73
2019-05-05T23:38:44.930Z,3.73
2019-05-05T23:41:10.257Z,3.80
2019-05-05T23:43:37.711Z,3.60
2019-05-05T23:46:05.133Z,3.55
2019-05-05T23:48:34.725Z,4.33
2019-05-05T23:51:01.065Z,4.03
2019-05-05T23:53:29.657Z,4.10
2019-05-05T23:55:58.192Z,4.53
2019-05-05T23:58:26.773Z,4.50
